createdAt,value
2022-10-16T00:08:34.182Z,14.95
2022-10-16T00:18:11.351Z,15.02
2022-10-16T00:27:48.468Z,14.84
2022-10-16T00:37:25.275Z,14.74
2022-10-16T00:47:02.465Z,14.72
2022-10-16T00:56:38.813Z,14.36
2022-10-16T01:06:16.040Z,13.91
2022-10-16T01:15:52.377Z,13.51
2022-10-16T01:25:29.256Z,13.36
2022-10-16T01:35:06.351Z,13.32
2022-10-16T01:44:43.527Z,13.09
2022-10-16T01:54:20.259Z,12.73
2022-10-16T02:03:57.418Z,12.98
2022-10-16T02:13:34.734Z,13.11
2022-10-16T02:23:12.191Z,13.13
2022-10-16T02:32:49.013Z,13
2022-10-16T02:42:26.336Z,12.84
2022-10-16T02:52:03.338Z,12.83
2022-10-16T03:01:40.817Z,13.3
2022-10-16T03:11:18.390Z,13.53
2022-10-16T03:20:55.959Z,13.37
2022-10-16T03:30:33.255Z,13.32
2022-10-16T03:40:10.202Z,12.99
2022-10-16T03:49:47.050Z,12.79
2022-10-16T03:59:24.024Z,12.86
2022-10-16T04:09:01.326Z,12.44
2022-10-16T04:18:38.251Z,12.34
2022-10-16T04:28:15.090Z,12.49
2022-10-16T04:37:52.911Z,13
2022-10-16T04:47:30.447Z,12.99
2022-10-16T04:57:07.984Z,13.17
2022-10-16T05:06:45.556Z,13.07
2022-10-16T05:16:22.995Z,13.12
2022-10-16T05:25:59.928Z,13.13
2022-10-16T05:35:37.101Z,13.15
2022-10-16T05:45:14.422Z,13.25
2022-10-16T05:54:52.073Z,13.39
2022-10-16T06:04:29.871Z,13.61
2022-10-16T06:14:07.257Z,13.63
2022-10-16T06:33:23.204Z,14.44
2022-10-16T06:43:01.258Z,14.63
2022-10-16T06:52:39.376Z,14.88
2022-10-16T07:02:16.177Z,14.98
2022-10-16T07:11:53.880Z,15.3
2022-10-16T07:21:30.573Z,14.98
2022-10-16T07:31:07.840Z,15.38
2022-10-16T07:40:45.607Z,15.84
2022-10-16T07:50:24.329Z,16.16
2022-10-16T08:00:01.712Z,16.28
2022-10-16T08:09:39.318Z,16.59
2022-10-16T08:19:17.794Z,16.99
2022-10-16T08:28:55.394Z,17.02
2022-10-16T08:38:33.098Z,17.24
2022-10-16T08:48:10.627Z,17.47
2022-10-16T08:57:49.506Z,17.48
2022-10-16T09:07:28.381Z,17.84
2022-10-16T09:17:06.211Z,18.11
2022-10-16T09:26:44.493Z,18.3
2022-10-16T09:36:22.609Z,18.69
2022-10-16T09:45:59.990Z,18.97
2022-10-16T09:55:39.228Z,19.3
2022-10-16T10:05:16.135Z,19.37
2022-10-16T10:14:52.502Z,19.15
2022-10-16T10:24:32.268Z,19.47
2022-10-16T10:34:11.829Z,20.26
2022-10-16T10:43:52.663Z,20.72
2022-10-16T10:53:27.246Z,20.32
2022-10-16T11:03:03.769Z,20.25
2022-10-16T11:12:40.978Z,19.98
2022-10-16T11:22:16.895Z,19.93
2022-10-16T11:31:54.186Z,19.87
2022-10-16T11:41:32.628Z,20.32
2022-10-16T11:51:13.286Z,20.64
2022-10-16T12:00:51.637Z,20.61
2022-10-16T12:20:25.553Z,22.3
2022-10-16T12:30:13.088Z,23.02
2022-10-16T12:39:33.660Z,22.39
2022-10-16T12:49:06.327Z,21.57
2022-10-16T12:58:33.408Z,21.56
2022-10-16T13:08:08.429Z,21.3
2022-10-16T13:17:43.013Z,21.06
2022-10-16T13:27:35.344Z,22.11
2022-10-16T13:37:24.492Z,22.86
2022-10-16T13:46:48.784Z,21.98
2022-10-16T13:56:46.643Z,24.11
2022-10-16T14:06:07.627Z,23.92
2022-10-16T14:15:48.342Z,22.83
2022-10-16T14:25:21.462Z,22.74
2022-10-16T14:34:56.710Z,22
2022-10-16T14:44:28.955Z,21.22
2022-10-16T14:54:06.807Z,21.57
2022-10-16T15:03:50.668Z,22.72
2022-10-16T15:13:21.684Z,21.99
2022-10-16T15:22:55.520Z,21.24
2022-10-16T15:32:31.139Z,20.78
2022-10-16T15:51:43.191Z,20.16
2022-10-16T16:01:19.667Z,19.83
2022-10-16T16:10:56.039Z,19.35
2022-10-16T16:20:31.817Z,18.73
2022-10-16T16:30:07.849Z,17.89
2022-10-16T16:39:44.020Z,17.28
2022-10-16T16:49:20.496Z,16.75
2022-10-16T16:58:57.018Z,16.36
2022-10-16T17:08:33.671Z,16.15
2022-10-16T17:18:10.480Z,15.99
2022-10-16T17:27:47.761Z,16.12
2022-10-16T17:37:25.319Z,16.06
2022-10-16T17:47:02.691Z,16
2022-10-16T17:56:39.494Z,15.86
2022-10-16T18:06:22.609Z,15.68
2022-10-16T18:15:53.399Z,15.44
2022-10-16T18:25:30.368Z,15.18
2022-10-16T18:35:06.904Z,14.9
2022-10-16T18:44:43.514Z,14.7
2022-10-16T18:54:20.479Z,14.45
2022-10-16T19:03:57.909Z,14.18
2022-10-16T19:13:33.955Z,14.12
2022-10-16T19:23:11.491Z,14.11
2022-10-16T19:32:47.837Z,14.06
2022-10-16T19:42:24.891Z,13.77
2022-10-16T19:52:01.152Z,13.58
2022-10-16T20:01:38.252Z,13.44
2022-10-16T20:11:14.947Z,13.24
2022-10-16T20:20:52.002Z,13.2
2022-10-16T20:30:28.780Z,13.11
2022-10-16T20:40:06.018Z,13.03
2022-10-16T20:49:42.914Z,12.85
2022-10-16T20:59:20.159Z,12.82
2022-10-16T21:08:59.820Z,12.78
2022-10-16T21:18:35.553Z,12.94
2022-10-16T21:28:12.807Z,12.82
2022-10-16T21:37:50.160Z,12.87
2022-10-16T21:47:27.551Z,12.97
2022-10-16T22:06:42.107Z,13.33
2022-10-16T22:16:19.317Z,13.21
2022-10-16T22:25:56.195Z,13.05
2022-10-16T22:35:33.284Z,12.99
2022-10-16T22:45:10.471Z,12.52
2022-10-16T22:54:47.234Z,12.24
2022-10-16T23:04:24.223Z,12.02
2022-10-16T23:14:00.600Z,11.71
2022-10-16T23:23:37.147Z,11.66
2022-10-16T23:33:13.963Z,11.45
2022-10-16T23:42:50.778Z,11.47
2022-10-16T23:52:28.701Z,12.16
